createdAt,value
2022-12-01T00:00:27.560Z,4.92
2022-12-01T00:00:59.650Z,4.90
2022-12-01T00:01:31.443Z,4.89
2022-12-01T00:02:03.007Z,4.89
2022-12-01T00:02:34.672Z,4.90
2022-12-01T00:03:06.553Z,4.91
2022-12-01T00:03:38.164Z,4.89
2022-12-01T00:04:10.114Z,4.89
2022-12-01T00:04:41.766Z,4.89
2022-12-01T00:05:13.269Z,4.92
2022-12-01T00:05:44.733Z,4.91
2022-12-01T00:06:18.522Z,4.93
2022-12-01T00:06:50.025Z,4.92
2022-12-01T00:07:21.495Z,4.92
2022-12-01T00:07:53.019Z,4.90
2022-12-01T00:08:24.493Z,4.92
2022-12-01T00:09:19.514Z,4.93
2022-12-01T00:10:10.633Z,4.88
2022-12-01T00:10:42.109Z,4.90
2022-12-01T00:11:13.570Z,4.91
2022-12-01T00:11:45.311Z,4.92
2022-12-01T00:12:16.744Z,4.93
2022-12-01T00:12:48.219Z,4.94
2022-12-01T00:13:19.718Z,4.96
2022-12-01T00:13:51.182Z,4.96
2022-12-01T00:14:22.801Z,4.97
2022-12-01T00:15:01.053Z,4.98
2022-12-01T00:15:36.132Z,5.01
2022-12-01T00:16:16.935Z,4.97
2022-12-01T00:16:48.644Z,5.00
2022-12-01T00:17:21.340Z,4.99
2022-12-01T00:17:52.890Z,4.97
2022-12-01T00:18:24.452Z,4.97
2022-12-01T00:18:56.214Z,4.96
2022-12-01T00:19:27.956Z,4.97
2022-12-01T00:19:59.394Z,4.97
2022-12-01T00:20:33.209Z,4.96
2022-12-01T00:21:04.981Z,4.94
2022-12-01T00:21:36.507Z,4.95
2022-12-01T00:22:07.956Z,4.98
2022-12-01T00:22:43.146Z,4.99
2022-12-01T00:23:14.574Z,4.95
2022-12-01T00:23:49.936Z,4.97
2022-12-01T00:24:23.415Z,4.97
2022-12-01T00:24:54.848Z,4.97
2022-12-01T00:25:26.717Z,4.96
2022-12-01T00:26:06.976Z,4.97
2022-12-01T00:26:38.887Z,4.95
2022-12-01T00:27:10.370Z,4.95
2022-12-01T00:27:42.555Z,4.94
2022-12-01T00:28:14.005Z,4.96
2022-12-01T00:28:51.839Z,4.95
2022-12-01T00:29:23.526Z,4.92
2022-12-01T00:29:55.010Z,4.93
2022-12-01T00:30:26.509Z,4.90
2022-12-01T00:30:58.081Z,4.90
2022-12-01T00:31:29.593Z,4.92
2022-12-01T00:32:01.246Z,4.89
2022-12-01T00:32:32.957Z,4.89
2022-12-01T00:33:04.403Z,4.90
2022-12-01T00:33:36.084Z,4.90
2022-12-01T00:34:11.488Z,4.92
2022-12-01T00:34:43.144Z,4.91
2022-12-01T00:35:15.649Z,4.93
2022-12-01T00:35:47.342Z,4.95
2022-12-01T00:36:19.633Z,4.94
2022-12-01T00:36:51.660Z,4.92
2022-12-01T00:37:23.140Z,4.92
2022-12-01T00:37:54.624Z,4.88
2022-12-01T00:38:26.563Z,4.88
2022-12-01T00:38:58.049Z,4.85
2022-12-01T00:39:29.653Z,4.90
2022-12-01T00:40:01.666Z,4.90
2022-12-01T00:40:33.152Z,4.88
2022-12-01T00:41:05.167Z,4.87
2022-12-01T00:41:36.661Z,4.86
2022-12-01T00:42:13.130Z,4.86
2022-12-01T00:42:44.977Z,4.88
2022-12-01T00:43:16.456Z,4.87
2022-12-01T00:43:48.227Z,4.86
2022-12-01T00:44:19.836Z,4.88
2022-12-01T00:44:51.351Z,4.87
2022-12-01T00:45:22.792Z,4.89
2022-12-01T00:45:56.344Z,4.89
2022-12-01T00:46:28.010Z,4.90
2022-12-01T00:46:59.605Z,4.90
2022-12-01T00:47:31.102Z,4.89
2022-12-01T00:48:02.569Z,4.89
2022-12-01T00:48:34.013Z,4.91
2022-12-01T00:49:06.143Z,4.88
2022-12-01T00:49:37.610Z,4.90
2022-12-01T00:50:09.502Z,4.90
2022-12-01T00:50:41.256Z,4.91
2022-12-01T00:51:12.731Z,4.91
2022-12-01T00:51:44.268Z,4.91
2022-12-01T00:52:17.312Z,4.88
2022-12-01T00:52:48.808Z,4.89
2022-12-01T00:53:20.829Z,4.91
2022-12-01T00:53:52.267Z,4.91
2022-12-01T00:54:24.050Z,4.94
2022-12-01T00:54:55.481Z,4.90
2022-12-01T00:55:27.006Z,4.93
2022-12-01T00:55:58.585Z,4.95
2022-12-01T00:56:30.101Z,4.95
2022-12-01T00:57:01.587Z,4.95
2022-12-01T00:57:33.042Z,4.94
2022-12-01T00:58:04.519Z,4.94
2022-12-01T00:58:36.114Z,4.96
2022-12-01T00:59:07.586Z,4.96
2022-12-01T00:59:39.046Z,4.96
2022-12-01T01:00:11.710Z,4.94
2022-12-01T01:00:47.499Z,4.97
2022-12-01T01:01:19.602Z,4.99
2022-12-01T01:01:51.364Z,4.98
2022-12-01T01:02:22.985Z,5.01
2022-12-01T01:02:54.744Z,5.00
2022-12-01T01:03:27.324Z,4.92
2022-12-01T01:03:58.817Z,4.93
2022-12-01T01:04:31.338Z,4.94
2022-12-01T01:05:02.781Z,4.96
2022-12-01T01:05:41.425Z,4.95
2022-12-01T01:06:13.018Z,4.92
2022-12-01T01:06:44.640Z,4.92
2022-12-01T01:07:16.201Z,4.94
2022-12-01T01:07:47.754Z,4.94
2022-12-01T01:08:19.422Z,4.97
2022-12-01T01:08:50.943Z,4.96
2022-12-01T01:09:22.532Z,4.94
2022-12-01T01:09:54.057Z,4.95
2022-12-01T01:10:25.529Z,4.94
2022-12-01T01:10:59.887Z,4.93
2022-12-01T01:11:31.377Z,4.92
2022-12-01T01:12:03.089Z,4.94
2022-12-01T01:12:34.560Z,4.97
2022-12-01T01:13:06.410Z,4.95
2022-12-01T01:13:38.464Z,4.96
2022-12-01T01:14:09.964Z,4.96
2022-12-01T01:14:41.442Z,4.95
2022-12-01T01:15:13.001Z,4.96
2022-12-01T01:15:44.584Z,4.94
2022-12-01T01:16:18.998Z,4.94
2022-12-01T01:16:50.591Z,4.94
2022-12-01T01:17:22.157Z,4.93
2022-12-01T01:17:53.736Z,4.93
2022-12-01T01:18:25.957Z,4.94
2022-12-01T01:18:58.303Z,4.94
2022-12-01T01:19:29.752Z,4.96
2022-12-01T01:20:01.309Z,4.95
2022-12-01T01:20:33.524Z,4.94
2022-12-01T01:21:07.873Z,4.93
2022-12-01T01:21:39.613Z,4.93
2022-12-01T01:22:11.324Z,4.89
2022-12-01T01:22:42.770Z,4.87
2022-12-01T01:23:14.222Z,4.89
2022-12-01T01:23:45.680Z,4.91
2022-12-01T01:24:17.505Z,4.91
2022-12-01T01:24:48.973Z,4.93
2022-12-01T01:25:20.524Z,4.92
2022-12-01T01:25:52.128Z,4.92
2022-12-01T01:26:29.304Z,4.90
2022-12-01T01:27:00.959Z,4.92
2022-12-01T01:27:34.486Z,4.88
2022-12-01T01:28:06.040Z,4.90
2022-12-01T01:28:37.574Z,4.89
2022-12-01T01:29:09.031Z,4.90
2022-12-01T01:29:40.513Z,4.90
2022-12-01T01:30:12.412Z,4.90
2022-12-01T01:30:44.571Z,4.90
2022-12-01T01:31:19.293Z,4.90
2022-12-01T01:31:50.813Z,4.90
2022-12-01T01:32:22.287Z,4.88
2022-12-01T01:32:53.851Z,4.86
2022-12-01T01:33:25.436Z,4.88
2022-12-01T01:33:57.568Z,4.85
2022-12-01T01:34:29.113Z,4.82
2022-12-01T01:35:00.745Z,4.80
2022-12-01T01:35:32.316Z,4.81
2022-12-01T01:36:04.695Z,4.82
2022-12-01T01:36:36.171Z,4.79
2022-12-01T01:37:07.628Z,4.77
2022-12-01T01:37:39.080Z,4.78
2022-12-01T01:38:11.445Z,4.80
2022-12-01T01:38:43.386Z,4.77
2022-12-01T01:39:14.846Z,4.78
2022-12-01T01:39:46.797Z,4.78
2022-12-01T01:40:18.728Z,4.77
2022-12-01T01:40:50.203Z,4.76
2022-12-01T01:41:22.457Z,4.76
2022-12-01T01:41:53.915Z,4.73
2022-12-01T01:42:25.395Z,4.71
2022-12-01T01:42:56.834Z,4.71
2022-12-01T01:43:47.701Z,4.71
2022-12-01T01:44:54.173Z,4.76
2022-12-01T01:45:29.272Z,4.77
2022-12-01T01:46:00.868Z,4.76
2022-12-01T01:46:34.365Z,4.77
2022-12-01T01:47:06.106Z,4.78
2022-12-01T01:47:39.304Z,4.80
2022-12-01T01:48:13.516Z,4.81
2022-12-01T01:49:10.003Z,4.81
2022-12-01T01:49:42.214Z,4.81
2022-12-01T01:50:15.913Z,4.82
2022-12-01T01:50:47.370Z,4.82
2022-12-01T01:51:23.978Z,4.82
2022-12-01T01:51:57.634Z,4.83
2022-12-01T01:52:29.113Z,4.87
2022-12-01T01:53:10.597Z,4.86
2022-12-01T01:53:43.206Z,4.83
2022-12-01T01:54:22.552Z,4.86
2022-12-01T01:54:54.956Z,4.87
2022-12-01T01:55:27.380Z,4.86
2022-12-01T01:55:59.405Z,4.87
2022-12-01T01:56:30.945Z,4.86
2022-12-01T01:57:03.833Z,4.80
2022-12-01T01:57:35.827Z,4.85
2022-12-01T01:58:09.448Z,4.85
2022-12-01T01:58:41.178Z,4.86
2022-12-01T01:59:15.536Z,4.83
2022-12-01T01:59:50.644Z,4.80
2022-12-01T02:00:22.701Z,4.80
2022-12-01T02:00:54.177Z,4.81
2022-12-01T02:01:25.844Z,4.83
2022-12-01T02:02:06.577Z,4.82
2022-12-01T02:02:40.804Z,4.83
2022-12-01T02:03:16.035Z,4.85
2022-12-01T02:03:48.065Z,4.83
2022-12-01T02:04:20.431Z,4.81
2022-12-01T02:04:57.294Z,4.79
2022-12-01T02:05:31.235Z,4.76
2022-12-01T02:06:05.209Z,4.78
2022-12-01T02:06:36.810Z,4.79
2022-12-01T02:07:08.996Z,4.80
2022-12-01T02:07:41.343Z,4.80
2022-12-01T02:08:12.955Z,4.78
2022-12-01T02:08:44.429Z,4.78
2022-12-01T02:09:16.115Z,4.77
2022-12-01T02:09:48.022Z,4.78
2022-12-01T02:10:24.048Z,4.79
2022-12-01T02:11:20.369Z,4.81
2022-12-01T02:12:17.989Z,4.83
2022-12-01T02:12:58.821Z,4.81
2022-12-01T02:13:54.116Z,4.82
2022-12-01T02:14:47.385Z,4.78
2022-12-01T02:15:58.130Z,4.75
2022-12-01T02:16:45.291Z,4.76
2022-12-01T02:17:31.694Z,4.73
2022-12-01T02:18:35.334Z,4.72
2022-12-01T02:19:28.370Z,4.72
2022-12-01T02:20:24.507Z,4.70
2022-12-01T02:21:13.225Z,4.72
2022-12-01T02:22:09.207Z,4.74
2022-12-01T02:22:54.457Z,4.74
2022-12-01T02:23:56.628Z,4.73
2022-12-01T02:24:42.509Z,4.72
2022-12-01T02:25:27.061Z,4.70
2022-12-01T02:26:24.337Z,4.70
2022-12-01T02:27:25.024Z,4.71
2022-12-01T02:28:15.654Z,4.71
2022-12-01T02:29:01.221Z,4.72
2022-12-01T02:30:11.354Z,4.72
2022-12-01T02:30:58.787Z,4.74
2022-12-01T02:31:55.335Z,4.72
2022-12-01T02:32:33.387Z,4.73
2022-12-01T02:33:14.349Z,4.71
2022-12-01T02:33:53.786Z,4.69
2022-12-01T02:34:40.030Z,4.74
2022-12-01T02:35:23.485Z,4.72
2022-12-01T02:36:01.371Z,4.70
2022-12-01T02:36:37.023Z,4.69
2022-12-01T02:37:15.860Z,4.71
2022-12-01T02:38:23.136Z,4.68
2022-12-01T02:38:59.454Z,4.69
2022-12-01T02:40:06.149Z,4.70
2022-12-01T02:40:47.470Z,4.72
2022-12-01T02:41:25.480Z,4.72
2022-12-01T02:42:31.755Z,4.76
2022-12-01T02:43:03.580Z,4.76
2022-12-01T02:43:51.734Z,4.77
2022-12-01T02:44:32.531Z,4.76
2022-12-01T02:45:06.296Z,4.75
2022-12-01T02:45:46.208Z,4.74
2022-12-01T02:46:28.011Z,4.78
2022-12-01T02:47:11.761Z,4.77
2022-12-01T02:47:44.824Z,4.77
2022-12-01T02:48:22.649Z,4.75
2022-12-01T02:48:55.215Z,4.75
2022-12-01T02:49:30.863Z,4.74
2022-12-01T02:50:03.875Z,4.74
2022-12-01T02:50:36.686Z,4.75
2022-12-01T02:51:12.841Z,4.76
2022-12-01T02:51:45.350Z,4.75
2022-12-01T02:52:17.749Z,4.78
2022-12-01T02:52:49.279Z,4.77
2022-12-01T02:53:20.939Z,4.76
2022-12-01T02:53:52.906Z,4.77
2022-12-01T02:54:25.656Z,4.73
2022-12-01T02:54:57.218Z,4.73
2022-12-01T02:55:28.718Z,4.74
2022-12-01T02:56:00.183Z,4.75
2022-12-01T02:56:32.021Z,4.73
2022-12-01T02:57:03.574Z,4.74
2022-12-01T02:57:35.049Z,4.75
2022-12-01T02:58:14.100Z,4.77
2022-12-01T02:58:45.797Z,4.77
2022-12-01T02:59:17.243Z,4.78
2022-12-01T02:59:52.168Z,4.77
2022-12-01T03:00:23.640Z,4.77
2022-12-01T03:01:34.265Z,4.77
2022-12-01T03:02:24.635Z,4.80
2022-12-01T03:03:11.574Z,4.80
2022-12-01T03:04:13.947Z,4.81
2022-12-01T03:05:05.021Z,4.82
2022-12-01T03:05:36.631Z,4.83
2022-12-01T03:06:15.982Z,4.81
2022-12-01T03:07:05.879Z,4.79
2022-12-01T03:08:14.619Z,4.82
2022-12-01T03:09:27.407Z,4.81
2022-12-01T03:10:18.336Z,4.80
2022-12-01T03:10:57.810Z,4.75
2022-12-01T03:11:49.008Z,4.74
2022-12-01T03:12:32.711Z,4.76
2022-12-01T03:13:31.340Z,4.71
2022-12-01T03:14:26.759Z,4.74
2022-12-01T03:15:03.548Z,4.77
2022-12-01T03:15:47.290Z,4.78
2022-12-01T03:16:18.811Z,4.78
2022-12-01T03:16:52.346Z,4.77
2022-12-01T03:17:53.858Z,4.79
2022-12-01T03:18:28.292Z,4.79
2022-12-01T03:19:11.453Z,4.80
2022-12-01T03:19:48.621Z,4.79
2022-12-01T03:20:30.826Z,4.78
2022-12-01T03:21:10.472Z,4.81
2022-12-01T03:21:46.603Z,4.77
2022-12-01T03:22:28.563Z,4.82
2022-12-01T03:23:18.736Z,4.79
2022-12-01T03:23:56.740Z,4.81
2022-12-01T03:24:31.687Z,4.82
2022-12-01T03:25:04.007Z,4.78
2022-12-01T03:25:37.305Z,4.79
2022-12-01T03:26:11.175Z,4.70
2022-12-01T03:26:46.345Z,4.67
2022-12-01T03:27:22.489Z,4.64
2022-12-01T03:28:20.192Z,4.64
2022-12-01T03:29:06.538Z,4.65
2022-12-01T03:29:44.268Z,4.65
2022-12-01T03:30:16.585Z,4.64
2022-12-01T03:30:48.721Z,4.62
2022-12-01T03:31:26.065Z,4.57
2022-12-01T03:32:05.767Z,4.58
2022-12-01T03:32:42.397Z,4.55
2022-12-01T03:33:22.565Z,4.57
2022-12-01T03:34:07.591Z,4.55
2022-12-01T03:34:51.740Z,4.57
2022-12-01T03:35:27.166Z,4.59
2022-12-01T03:36:03.603Z,4.56
2022-12-01T03:36:43.002Z,4.57
2022-12-01T03:37:20.601Z,4.59
2022-12-01T03:37:57.559Z,4.60
2022-12-01T03:38:30.580Z,4.62
2022-12-01T03:39:06.806Z,4.63
2022-12-01T03:39:39.957Z,4.67
2022-12-01T03:40:17.724Z,4.71
2022-12-01T03:40:51.264Z,4.70
2022-12-01T03:41:26.421Z,4.69
2022-12-01T03:42:01.825Z,4.71
2022-12-01T03:42:37.567Z,4.70
2022-12-01T03:43:16.164Z,4.71
2022-12-01T03:43:52.803Z,4.72
2022-12-01T03:44:33.134Z,4.71
2022-12-01T03:45:08.512Z,4.70
2022-12-01T03:46:01.511Z,4.70
2022-12-01T03:46:41.343Z,4.72
2022-12-01T03:47:16.101Z,4.72
2022-12-01T03:47:47.920Z,4.73
2022-12-01T03:48:19.391Z,4.76
2022-12-01T03:48:52.909Z,4.76
2022-12-01T03:49:25.698Z,4.76
2022-12-01T03:50:00.236Z,4.79
2022-12-01T03:50:46.996Z,4.79
2022-12-01T03:51:21.080Z,4.79
2022-12-01T03:52:14.230Z,4.78
2022-12-01T03:53:08.873Z,4.78
2022-12-01T03:54:00.669Z,4.80
2022-12-01T03:54:55.674Z,4.83
2022-12-01T03:55:32.237Z,4.81
2022-12-01T03:56:05.887Z,4.82
2022-12-01T03:56:43.280Z,4.81
2022-12-01T03:57:18.937Z,4.82
2022-12-01T03:58:14.505Z,4.78
2022-12-01T03:58:47.456Z,4.78
2022-12-01T03:59:20.692Z,4.80
2022-12-01T03:59:52.605Z,4.82
2022-12-01T04:00:24.466Z,4.80
2022-12-01T04:00:57.617Z,4.79
2022-12-01T04:01:33.642Z,4.77
2022-12-01T04:02:08.477Z,4.78
2022-12-01T04:02:40.875Z,4.76
2022-12-01T04:03:18.110Z,4.78
2022-12-01T04:03:49.660Z,4.79
2022-12-01T04:04:21.291Z,4.78
2022-12-01T04:04:52.891Z,4.80
2022-12-01T04:05:25.601Z,4.79
2022-12-01T04:05:58.016Z,4.80
2022-12-01T04:06:29.746Z,4.79
2022-12-01T04:07:01.232Z,4.77
2022-12-01T04:07:32.928Z,4.74
2022-12-01T04:08:04.633Z,4.74
2022-12-01T04:08:37.516Z,4.73
2022-12-01T04:09:09.368Z,4.73
2022-12-01T04:09:41.780Z,4.75
2022-12-01T04:10:13.233Z,4.75
2022-12-01T04:10:44.944Z,4.75
2022-12-01T04:11:35.241Z,4.75
2022-12-01T04:12:25.882Z,4.75
2022-12-01T04:12:59.109Z,4.73
2022-12-01T04:13:30.584Z,4.73
2022-12-01T04:14:02.110Z,4.72
2022-12-01T04:14:33.615Z,4.70
2022-12-01T04:15:11.122Z,4.70
2022-12-01T04:15:43.277Z,4.70
2022-12-01T04:16:14.816Z,4.69
2022-12-01T04:16:46.346Z,4.70
2022-12-01T04:17:17.822Z,4.72
2022-12-01T04:17:49.278Z,4.70
2022-12-01T04:18:21.547Z,4.74
2022-12-01T04:18:53.029Z,4.71
2022-12-01T04:19:24.872Z,4.71
2022-12-01T04:19:56.650Z,4.70
2022-12-01T04:20:28.113Z,4.70
2022-12-01T04:20:59.602Z,4.72
2022-12-01T04:21:31.099Z,4.72
2022-12-01T04:22:03.433Z,4.72
2022-12-01T04:22:34.902Z,4.72
2022-12-01T04:23:06.353Z,4.72
2022-12-01T04:23:56.380Z,4.71
2022-12-01T04:24:28.036Z,4.71
2022-12-01T04:24:59.798Z,4.72
2022-12-01T04:25:31.224Z,4.73
2022-12-01T04:26:04.331Z,4.74
2022-12-01T04:26:37.296Z,4.73
2022-12-01T04:27:08.959Z,4.72
2022-12-01T04:27:40.496Z,4.74
2022-12-01T04:28:11.949Z,4.75
2022-12-01T04:28:43.380Z,4.76
2022-12-01T04:29:15.025Z,4.74
2022-12-01T04:29:46.793Z,4.75
2022-12-01T04:30:18.692Z,4.75
2022-12-01T04:30:50.193Z,4.75
2022-12-01T04:31:21.998Z,4.73
2022-12-01T04:31:53.623Z,4.72
2022-12-01T04:32:25.297Z,4.76
2022-12-01T04:32:57.605Z,4.76
2022-12-01T04:33:29.520Z,4.76
2022-12-01T04:34:01.364Z,4.77
2022-12-01T04:34:32.885Z,4.77
2022-12-01T04:35:04.675Z,4.74
2022-12-01T04:35:36.118Z,4.77
2022-12-01T04:36:08.145Z,4.78
2022-12-01T04:36:39.644Z,4.78
2022-12-01T04:37:12.151Z,4.78
2022-12-01T04:37:43.729Z,4.77
2022-12-01T04:38:15.162Z,4.78
2022-12-01T04:38:46.661Z,4.78
2022-12-01T04:39:18.273Z,4.79
2022-12-01T04:39:50.056Z,4.80
2022-12-01T04:40:21.703Z,4.79
2022-12-01T04:40:53.249Z,4.78
2022-12-01T04:41:24.720Z,4.77
2022-12-01T04:41:56.389Z,4.79
2022-12-01T04:42:27.879Z,4.79
2022-12-01T04:42:59.415Z,4.79
2022-12-01T04:43:30.854Z,4.80
2022-12-01T04:44:02.419Z,4.80
2022-12-01T04:44:35.284Z,4.82
2022-12-01T04:45:07.442Z,4.82
2022-12-01T04:45:38.936Z,4.80
2022-12-01T04:46:10.869Z,4.81
2022-12-01T04:46:42.555Z,4.81
2022-12-01T04:47:14.053Z,4.80
2022-12-01T04:47:45.477Z,4.80
2022-12-01T04:48:17.033Z,4.80
2022-12-01T04:48:48.540Z,4.77
2022-12-01T04:49:21.586Z,4.76
2022-12-01T04:49:53.285Z,4.73
2022-12-01T04:50:24.750Z,4.74
2022-12-01T04:50:56.311Z,4.72
2022-12-01T04:51:27.745Z,4.72
2022-12-01T04:51:59.325Z,4.72
2022-12-01T04:52:35.012Z,4.70
2022-12-01T04:53:07.022Z,4.72
2022-12-01T04:53:38.749Z,4.72
2022-12-01T04:54:10.224Z,4.71
2022-12-01T04:54:41.730Z,4.68
2022-12-01T04:55:15.363Z,4.68
2022-12-01T04:55:46.989Z,4.68
2022-12-01T04:56:18.532Z,4.66
2022-12-01T04:56:50.025Z,4.64
2022-12-01T04:57:21.469Z,4.65
2022-12-01T04:57:52.918Z,4.68
2022-12-01T04:58:24.573Z,4.68
2022-12-01T04:58:56.100Z,4.65
2022-12-01T04:59:27.890Z,4.64
2022-12-01T04:59:59.441Z,4.64
2022-12-01T05:00:31.007Z,4.60
2022-12-01T05:01:04.559Z,4.59
2022-12-01T05:01:36.125Z,4.54
2022-12-01T05:02:07.699Z,4.53
2022-12-01T05:02:43.227Z,4.50
2022-12-01T05:03:15.300Z,4.49
2022-12-01T05:03:51.010Z,4.45
2022-12-01T05:04:22.638Z,4.43
2022-12-01T05:04:54.081Z,4.44
2022-12-01T05:05:25.931Z,4.46
2022-12-01T05:06:07.800Z,4.46
2022-12-01T05:06:39.750Z,4.46
2022-12-01T05:07:11.191Z,4.45
2022-12-01T05:07:42.819Z,4.42
2022-12-01T05:08:14.329Z,4.41
2022-12-01T05:08:46.359Z,4.41
2022-12-01T05:09:18.094Z,4.43
2022-12-01T05:09:49.876Z,4.43
2022-12-01T05:10:22.034Z,4.44
2022-12-01T05:10:55.900Z,4.43
2022-12-01T05:11:29.008Z,4.45
2022-12-01T05:12:00.813Z,4.47
2022-12-01T05:12:32.484Z,4.46
2022-12-01T05:13:05.345Z,4.47
2022-12-01T05:13:39.506Z,4.46
2022-12-01T05:14:10.988Z,4.47
2022-12-01T05:14:42.468Z,4.46
2022-12-01T05:15:13.968Z,4.46
2022-12-01T05:15:45.436Z,4.45
2022-12-01T05:16:19.589Z,4.43
2022-12-01T05:16:51.198Z,4.41
2022-12-01T05:17:22.725Z,4.41
2022-12-01T05:17:54.202Z,4.41
2022-12-01T05:18:25.669Z,4.41
2022-12-01T05:19:17.818Z,4.42
2022-12-01T05:20:07.869Z,4.41
2022-12-01T05:20:57.477Z,4.42
2022-12-01T05:21:28.935Z,4.43
2022-12-01T05:22:00.379Z,4.42
2022-12-01T05:23:03.712Z,4.43
2022-12-01T05:23:24.224Z,4.45
2022-12-01T05:23:55.721Z,4.42
2022-12-01T05:24:27.302Z,4.42
2022-12-01T05:24:59.019Z,4.40
2022-12-01T05:25:30.825Z,4.40
2022-12-01T05:26:04.541Z,4.37
2022-12-01T05:26:36.477Z,4.37
2022-12-01T05:27:07.932Z,4.38
2022-12-01T05:27:39.415Z,4.38
2022-12-01T05:28:10.942Z,4.35
2022-12-01T05:28:42.460Z,4.33
2022-12-01T05:29:14.287Z,4.35
2022-12-01T05:29:45.795Z,4.35
2022-12-01T05:30:17.404Z,4.36
2022-12-01T05:30:50.006Z,4.37
2022-12-01T05:31:21.512Z,4.36
2022-12-01T05:31:53.057Z,4.36
2022-12-01T05:32:24.656Z,4.34
2022-12-01T05:32:56.113Z,4.34
2022-12-01T05:33:28.483Z,4.33
2022-12-01T05:34:00.225Z,4.35
2022-12-01T05:34:31.677Z,4.35
2022-12-01T05:35:03.359Z,4.32
2022-12-01T05:35:34.870Z,4.31
2022-12-01T05:36:06.712Z,4.31
2022-12-01T05:36:38.186Z,4.31
2022-12-01T05:37:09.813Z,4.30
2022-12-01T05:37:41.302Z,4.29
2022-12-01T05:38:12.827Z,4.30
2022-12-01T05:38:44.279Z,4.30
2022-12-01T05:39:15.756Z,4.30
2022-12-01T05:39:47.452Z,4.31
2022-12-01T05:40:19.256Z,4.32
2022-12-01T05:40:55.209Z,4.33
2022-12-01T05:41:26.651Z,4.33
2022-12-01T05:41:58.176Z,4.33
2022-12-01T05:42:29.658Z,4.35
2022-12-01T05:43:01.194Z,4.36
2022-12-01T05:43:32.742Z,4.37
2022-12-01T05:44:04.436Z,4.41
2022-12-01T05:44:35.986Z,4.42
2022-12-01T05:45:07.849Z,4.44
2022-12-01T05:45:39.304Z,4.45
2022-12-01T05:46:11.184Z,4.45
2022-12-01T05:46:42.748Z,4.46
2022-12-01T05:47:14.230Z,4.45
2022-12-01T05:47:45.676Z,4.44
2022-12-01T05:48:17.930Z,4.44
2022-12-01T05:48:49.401Z,4.42
2022-12-01T05:49:20.928Z,4.44
2022-12-01T05:49:52.424Z,4.45
2022-12-01T05:50:24.924Z,4.44
2022-12-01T05:50:56.518Z,4.43
2022-12-01T05:51:28.093Z,4.44
2022-12-01T05:51:59.535Z,4.44
2022-12-01T05:52:34.148Z,4.44
2022-12-01T05:53:06.317Z,4.45
2022-12-01T05:53:37.914Z,4.47
2022-12-01T05:54:09.538Z,4.47
2022-12-01T05:54:41.106Z,4.48
2022-12-01T05:55:12.701Z,4.49
2022-12-01T05:55:44.562Z,4.47
2022-12-01T05:56:16.071Z,4.50
2022-12-01T05:56:47.534Z,4.52
2022-12-01T05:57:19.109Z,4.51
2022-12-01T05:57:50.545Z,4.53
2022-12-01T05:58:22.497Z,4.55
2022-12-01T05:58:54.101Z,4.56
2022-12-01T05:59:25.684Z,4.56
2022-12-01T05:59:57.298Z,4.57
2022-12-01T06:00:28.924Z,4.56
2022-12-01T06:01:00.499Z,4.58
2022-12-01T06:01:32.078Z,4.58
2022-12-01T06:02:03.706Z,4.59
2022-12-01T06:02:35.189Z,4.58
2022-12-01T06:03:06.695Z,4.60
2022-12-01T06:03:38.205Z,4.61
2022-12-01T06:04:09.756Z,4.61
2022-12-01T06:04:41.252Z,4.62
2022-12-01T06:05:12.738Z,4.61
2022-12-01T06:05:44.249Z,4.64
2022-12-01T06:06:15.785Z,4.60
2022-12-01T06:06:47.301Z,4.61
2022-12-01T06:07:19.626Z,4.63
2022-12-01T06:07:51.172Z,4.62
2022-12-01T06:08:22.643Z,4.64
2022-12-01T06:08:54.133Z,4.65
2022-12-01T06:09:25.572Z,4.63
2022-12-01T06:09:57.070Z,4.64
2022-12-01T06:10:28.546Z,4.65
2022-12-01T06:11:00.362Z,4.64
2022-12-01T06:11:31.915Z,4.65
2022-12-01T06:12:03.505Z,4.64
2022-12-01T06:12:35.131Z,4.61
2022-12-01T06:13:06.609Z,4.63
2022-12-01T06:13:38.286Z,4.65
2022-12-01T06:14:10.169Z,4.65
2022-12-01T06:14:41.657Z,4.64
2022-12-01T06:15:14.049Z,4.65
2022-12-01T06:15:45.501Z,4.62
2022-12-01T06:16:17.001Z,4.64
2022-12-01T06:16:48.512Z,4.64
2022-12-01T06:17:20.133Z,4.64
2022-12-01T06:17:51.634Z,4.65
2022-12-01T06:18:24.013Z,4.64
2022-12-01T06:18:55.465Z,4.66
2022-12-01T06:19:26.925Z,4.67
2022-12-01T06:19:58.464Z,4.65
2022-12-01T06:20:29.908Z,4.65
2022-12-01T06:21:01.879Z,4.64
2022-12-01T06:21:33.356Z,4.63
2022-12-01T06:22:04.898Z,4.60
2022-12-01T06:22:36.621Z,4.64
2022-12-01T06:23:08.075Z,4.62
2022-12-01T06:23:39.508Z,4.65
2022-12-01T06:24:11.485Z,4.65
2022-12-01T06:24:42.963Z,4.64
2022-12-01T06:25:14.426Z,4.63
2022-12-01T06:25:45.860Z,4.62
2022-12-01T06:26:17.328Z,4.62
2022-12-01T06:26:48.800Z,4.68
2022-12-01T06:27:20.348Z,4.64
2022-12-01T06:27:56.398Z,4.64
2022-12-01T06:28:27.901Z,4.63
2022-12-01T06:28:59.362Z,4.64
2022-12-01T06:29:30.971Z,4.68
2022-12-01T06:30:03.684Z,4.68
2022-12-01T06:30:35.135Z,4.70
2022-12-01T06:31:06.704Z,4.71
2022-12-01T06:31:38.176Z,4.70
2022-12-01T06:32:10.026Z,4.64
2022-12-01T06:32:41.552Z,4.66
2022-12-01T06:33:13.036Z,4.69
2022-12-01T06:33:44.525Z,4.72
2022-12-01T06:34:15.992Z,4.67
2022-12-01T06:34:47.465Z,4.70
2022-12-01T06:35:19.008Z,4.68
2022-12-01T06:36:00.306Z,4.70
2022-12-01T06:36:32.293Z,4.73
2022-12-01T06:37:03.848Z,4.73
2022-12-01T06:37:35.399Z,4.75
2022-12-01T06:38:06.862Z,4.75
2022-12-01T06:38:38.425Z,4.75
2022-12-01T06:39:10.146Z,4.72
2022-12-01T06:39:41.784Z,4.74
2022-12-01T06:40:13.487Z,4.71
2022-12-01T06:40:45.180Z,4.76
2022-12-01T06:41:16.609Z,4.73
2022-12-01T06:41:48.103Z,4.74
2022-12-01T06:42:19.601Z,4.74
2022-12-01T06:42:51.102Z,4.74
2022-12-01T06:43:22.848Z,4.68
2022-12-01T06:43:54.871Z,4.69
2022-12-01T06:44:26.308Z,4.67
2022-12-01T06:44:57.815Z,4.69
2022-12-01T06:45:30.883Z,4.65
2022-12-01T06:46:03.932Z,4.71
2022-12-01T06:46:35.537Z,4.73
2022-12-01T06:47:08.185Z,4.74
2022-12-01T06:47:39.710Z,4.72
2022-12-01T06:48:12.808Z,4.69
2022-12-01T06:48:44.248Z,4.61
2022-12-01T06:49:15.697Z,4.64
2022-12-01T06:49:47.693Z,4.67
2022-12-01T06:50:19.430Z,4.65
2022-12-01T06:50:51.129Z,4.64
2022-12-01T06:51:23.010Z,4.68
2022-12-01T06:51:54.517Z,4.65
2022-12-01T06:52:25.966Z,4.65
2022-12-01T06:52:59.292Z,4.70
2022-12-01T06:53:30.912Z,4.70
2022-12-01T06:54:05.593Z,4.70
2022-12-01T06:54:37.650Z,4.69
2022-12-01T06:55:09.398Z,4.69
2022-12-01T06:55:41.079Z,4.70
2022-12-01T06:56:12.793Z,4.70
2022-12-01T06:56:45.907Z,4.70
2022-12-01T06:57:17.878Z,4.67
2022-12-01T06:57:49.780Z,4.69
2022-12-01T06:58:21.514Z,4.69
2022-12-01T06:58:53.238Z,4.71
2022-12-01T06:59:25.981Z,4.70
2022-12-01T06:59:57.843Z,4.67
2022-12-01T07:00:29.597Z,4.67
2022-12-01T07:01:01.241Z,4.67
2022-12-01T07:01:32.798Z,4.68
2022-12-01T07:02:04.646Z,4.64
2022-12-01T07:02:36.555Z,4.64
2022-12-01T07:03:08.417Z,4.66
2022-12-01T07:03:39.909Z,4.64
2022-12-01T07:04:11.451Z,4.64
2022-12-01T07:04:43.000Z,4.67
2022-12-01T07:05:14.528Z,4.65
2022-12-01T07:05:58.657Z,4.67
2022-12-01T07:06:30.816Z,4.63
2022-12-01T07:07:04.602Z,4.65
2022-12-01T07:07:37.406Z,4.67
2022-12-01T07:08:08.985Z,4.66
2022-12-01T07:08:40.600Z,4.63
2022-12-01T07:09:12.417Z,4.65
2022-12-01T07:09:44.128Z,4.63
2022-12-01T07:10:15.738Z,4.64
2022-12-01T07:10:59.803Z,4.65
2022-12-01T07:11:32.283Z,4.63
2022-12-01T07:12:03.777Z,4.65
2022-12-01T07:12:35.302Z,4.68
2022-12-01T07:13:06.758Z,4.69
2022-12-01T07:13:38.673Z,4.69
2022-12-01T07:14:20.527Z,4.70
2022-12-01T07:14:51.965Z,4.67
2022-12-01T07:15:24.323Z,4.69
2022-12-01T07:15:55.828Z,4.70
2022-12-01T07:16:27.415Z,4.69
2022-12-01T07:16:59.273Z,4.63
2022-12-01T07:17:30.884Z,4.67
2022-12-01T07:18:02.726Z,4.69
2022-12-01T07:18:35.309Z,4.68
2022-12-01T07:19:06.731Z,4.68
2022-12-01T07:19:38.477Z,4.69
2022-12-01T07:20:10.511Z,4.71
2022-12-01T07:20:42.069Z,4.69
2022-12-01T07:21:14.763Z,4.70
2022-12-01T07:21:46.261Z,4.71
2022-12-01T07:22:17.827Z,4.69
2022-12-01T07:22:49.257Z,4.72
2022-12-01T07:23:21.458Z,4.71
2022-12-01T07:23:53.292Z,4.71
2022-12-01T07:24:24.764Z,4.72
2022-12-01T07:24:56.220Z,4.72
2022-12-01T07:25:28.423Z,4.70
2022-12-01T07:26:08.126Z,4.71
2022-12-01T07:26:41.106Z,4.70
2022-12-01T07:27:12.651Z,4.69
2022-12-01T07:27:44.101Z,4.69
2022-12-01T07:28:15.545Z,4.67
2022-12-01T07:28:47.061Z,4.69
2022-12-01T07:29:18.789Z,4.69
2022-12-01T07:29:50.723Z,4.70
2022-12-01T07:30:28.112Z,4.70
2022-12-01T07:31:08.752Z,4.70
2022-12-01T07:31:40.477Z,4.69
2022-12-01T07:32:11.952Z,4.71
2022-12-01T07:32:43.393Z,4.71
2022-12-01T07:33:14.913Z,4.72
2022-12-01T07:33:46.422Z,4.71
2022-12-01T07:34:17.964Z,4.71
2022-12-01T07:34:49.408Z,4.71
2022-12-01T07:35:20.964Z,4.73
2022-12-01T07:35:53.659Z,4.74
2022-12-01T07:36:25.247Z,4.74
2022-12-01T07:36:56.789Z,4.75
2022-12-01T07:37:28.291Z,4.76
2022-12-01T07:37:59.739Z,4.76
2022-12-01T07:38:32.649Z,4.73
2022-12-01T07:39:05.605Z,4.71